Time;durP1;ratioP1;P1;durP2;ratioP2;P2;SDS_P1;SDS_P2;PMS_P1;PMS_P2;Temp;Humidity;BMP_temperature;BMP_pressure;BME280_temperature;BME280_humidity;BME280_pressure;Samples;Min_cycle;Max_cycle;Signal;HPM_P1;HPM_P2
2023/10/27 00:01:09;;;;;;;0.10;0.10;;;10.70;99.90;;;;;;4811315;29;20168;-74
2023/10/27 00:03:35;;;;;;;0.10;0.10;;;10.70;99.90;;;;;;4833875;29;20133;-73
2023/10/27 00:06:01;;;;;;;0.15;0.15;;;10.70;99.90;;;;;;4817441;29;20578;-73
2023/10/27 00:08:27;;;;;;;0.10;0.10;;;10.70;99.90;;;;;;4817499;29;20494;-73
2023/10/27 00:10:53;;;;;;;0.10;0.10;;;10.70;99.90;;;;;;4814830;29;20061;-73
2023/10/27 00:13:19;;;;;;;0.20;0.20;;;10.70;99.90;;;;;;4826918;29;20388;-73
2023/10/27 00:15:45;;;;;;;0.10;0.10;;;10.70;99.90;;;;;;4822435;29;20110;-73
2023/10/27 00:18:12;;;;;;;0.15;0.15;;;10.70;99.90;;;;;;4817643;29;20053;-73
2023/10/27 00:20:38;;;;;;;0.10;0.10;;;10.70;99.90;;;;;;4817708;29;20133;-73
2023/10/27 00:23:04;;;;;;;0.20;0.20;;;10.70;99.90;;;;;;4819258;29;20476;-73
2023/10/27 00:25:29;;;;;;;0.15;0.15;;;10.70;99.90;;;;;;4819393;29;20054;-73
2023/10/27 00:27:55;;;;;;;0.25;0.25;;;10.70;99.90;;;;;;4817111;29;20090;-73
2023/10/27 00:30:21;;;;;;;0.10;0.10;;;10.80;99.90;;;;;;4814302;29;20068;-73
2023/10/27 00:32:47;;;;;;;0.20;0.20;;;10.70;99.90;;;;;;4817246;29;20050;-73
2023/10/27 00:35:13;;;;;;;0.10;0.10;;;10.70;99.90;;;;;;4816325;29;20042;-73
2023/10/27 00:37:40;;;;;;;0.20;0.20;;;10.70;99.90;;;;;;4824616;29;20046;-73
2023/10/27 00:40:07;;;;;;;0.10;0.10;;;10.70;99.90;;;;;;4830599;29;20376;-73
2023/10/27 00:42:34;;;;;;;0.10;0.10;;;10.70;99.90;;;;;;4822923;29;20094;-73
2023/10/27 00:45:00;;;;;;;0.10;0.10;;;10.70;99.90;;;;;;4831643;29;20050;-73
2023/10/27 00:47:26;;;;;;;0.10;0.10;;;10.70;99.90;;;;;;4817896;29;20035;-73
2023/10/27 00:49:54;;;;;;;0.10;0.10;;;10.70;99.90;;;;;;4824692;29;20054;-73
2023/10/27 00:52:22;;;;;;;0.10;0.10;;;10.70;99.90;;;;;;4827341;29;20050;-73
2023/10/27 00:54:49;;;;;;;0.32;0.32;;;10.70;99.90;;;;;;4823657;29;20058;-73
2023/10/27 00:57:15;;;;;;;0.20;0.20;;;10.70;99.90;;;;;;4827786;29;20058;-73
2023/10/27 00:59:41;;;;;;;0.10;0.10;;;10.70;99.90;;;;;;4822607;29;20110;-73
2023/10/27 01:02:07;;;;;;;0.10;0.10;;;10.70;99.90;;;;;;4820556;29;20057;-73
2023/10/27 01:04:33;;;;;;;0.10;0.10;;;10.60;99.90;;;;;;4833802;29;20132;-73
2023/10/27 01:06:59;;;;;;;0.10;0.10;;;10.70;99.90;;;;;;4833041;29;20042;-73
2023/10/27 01:09:24;;;;;;;0.20;0.20;;;10.70;99.90;;;;;;4821648;29;20046;-73
2023/10/27 01:11:51;;;;;;;0.10;0.10;;;10.70;99.90;;;;;;4820093;29;20053;-74
2023/10/27 01:14:18;;;;;;;0.20;0.20;;;10.70;99.90;;;;;;4822217;29;20484;-73
2023/10/27 01:16:44;;;;;;;0.10;0.10;;;10.70;99.90;;;;;;4832659;29;20077;-74
2023/10/27 01:19:09;;;;;;;0.32;0.30;;;10.70;99.90;;;;;;4837970;29;20050;-73
2023/10/27 01:21:35;;;;;;;0.10;0.10;;;10.70;99.90;;;;;;4826621;29;20074;-73
2023/10/27 01:24:02;;;;;;;0.10;0.10;;;10.70;99.90;;;;;;4835865;29;20087;-73
2023/10/27 01:26:28;;;;;;;0.10;0.10;;;10.70;99.90;;;;;;4822495;29;20087;-73
2023/10/27 01:28:54;;;;;;;0.20;0.20;;;10.70;99.90;;;;;;4822847;29;20058;-73
2023/10/27 01:31:19;;;;;;;0.10;0.10;;;10.70;99.90;;;;;;4828017;29;20054;-73
2023/10/27 01:33:45;;;;;;;0.20;0.20;;;10.70;99.90;;;;;;4822047;29;20038;-73
2023/10/27 01:36:11;;;;;;;0.10;0.10;;;10.70;99.90;;;;;;4820032;29;20376;-73
2023/10/27 01:38:36;;;;;;;0.20;0.20;;;10.70;99.90;;;;;;4836221;29;20124;-74
2023/10/27 01:41:02;;;;;;;0.10;0.10;;;10.70;99.90;;;;;;4825085;29;20061;-73
2023/10/27 01:43:28;;;;;;;0.10;0.10;;;10.70;99.90;;;;;;4821649;29;20074;-73
2023/10/27 01:45:53;;;;;;;0.10;0.10;;;10.70;99.90;;;;;;4821932;29;20103;-74
2023/10/27 01:48:19;;;;;;;0.10;0.10;;;10.60;99.90;;;;;;4822685;29;20046;-73
2023/10/27 01:50:44;;;;;;;0.30;0.30;;;10.60;99.90;;;;;;4818944;29;20058;-73
2023/10/27 01:53:10;;;;;;;0.15;0.15;;;10.60;99.90;;;;;;4835765;29;20041;-73
2023/10/27 01:55:36;;;;;;;0.10;0.10;;;10.60;99.90;;;;;;4821802;29;20447;-73
2023/10/27 01:58:02;;;;;;;0.20;0.20;;;10.60;99.90;;;;;;4819480;29;20476;-73
2023/10/27 02:00:28;;;;;;;0.13;0.13;;;10.60;99.90;;;;;;4818184;29;20073;-74
2023/10/27 02:02:53;;;;;;;0.10;0.10;;;10.60;99.90;;;;;;4842084;29;20487;-73
2023/10/27 02:05:19;;;;;;;0.10;0.10;;;10.60;99.90;;;;;;4829574;29;20086;-74
2023/10/27 02:07:45;;;;;;;0.15;0.15;;;10.60;99.90;;;;;;4818385;29;20077;-73
2023/10/27 02:10:10;;;;;;;0.20;0.20;;;10.60;99.90;;;;;;4825596;29;20417;-73
2023/10/27 02:12:36;;;;;;;0.10;0.10;;;10.60;99.90;;;;;;4818657;29;20094;-73
2023/10/27 02:15:02;;;;;;;0.10;0.10;;;10.60;99.90;;;;;;4821274;29;20079;-73
2023/10/27 02:17:28;;;;;;;0.15;0.15;;;10.60;99.90;;;;;;4820433;29;20126;-73
2023/10/27 02:19:55;;;;;;;0.15;0.15;;;10.60;99.90;;;;;;4821479;29;20062;-73
2023/10/27 02:22:21;;;;;;;0.20;0.20;;;10.60;99.90;;;;;;4818795;29;20077;-73
2023/10/27 02:24:47;;;;;;;0.10;0.10;;;10.60;99.90;;;;;;4821800;29;20054;-73
2023/10/27 02:27:13;;;;;;;0.20;0.20;;;10.60;99.90;;;;;;4818039;29;20053;-73
2023/10/27 02:29:38;;;;;;;0.10;0.10;;;10.60;99.90;;;;;;4818841;29;20054;-73
2023/10/27 02:32:04;;;;;;;0.10;0.10;;;10.50;99.90;;;;;;4822291;29;20411;-73
2023/10/27 02:34:30;;;;;;;0.10;0.10;;;10.60;99.90;;;;;;4826088;29;20084;-73
2023/10/27 02:36:55;;;;;;;0.10;0.10;;;10.60;99.90;;;;;;4817046;29;20108;-73
2023/10/27 02:39:21;;;;;;;0.10;0.10;;;10.60;99.90;;;;;;4834431;29;20612;-73
2023/10/27 02:41:47;;;;;;;0.20;0.20;;;10.60;99.90;;;;;;4828122;29;20058;-73
2023/10/27 02:44:12;;;;;;;0.10;0.10;;;10.50;99.90;;;;;;4824447;29;20056;-73
2023/10/27 02:46:38;;;;;;;0.10;0.10;;;10.60;99.90;;;;;;4825108;29;20071;-73
2023/10/27 02:49:04;;;;;;;0.10;0.10;;;10.50;99.90;;;;;;4821408;29;20098;-73
2023/10/27 02:51:31;;;;;;;0.10;0.10;;;10.50;99.90;;;;;;4817051;29;20134;-73
2023/10/27 02:53:56;;;;;;;0.10;0.10;;;10.50;99.90;;;;;;4819688;29;20495;-73
2023/10/27 02:56:25;;;;;;;0.10;0.10;;;10.50;99.90;;;;;;4824715;29;20513;-73
2023/10/27 02:58:51;;;;;;;0.10;0.10;;;10.50;99.90;;;;;;4820379;29;20050;-73
2023/10/27 03:01:17;;;;;;;0.10;0.10;;;10.50;99.90;;;;;;4824327;29;20386;-73
2023/10/27 03:03:46;;;;;;;0.20;0.20;;;10.50;99.90;;;;;;4819963;29;20504;-73
2023/10/27 03:06:12;;;;;;;0.10;0.10;;;10.50;99.90;;;;;;4831385;29;20050;-73
2023/10/27 03:08:39;;;;;;;0.15;0.15;;;10.50;99.90;;;;;;4820758;29;20043;-73
2023/10/27 03:11:06;;;;;;;0.10;0.10;;;10.50;99.90;;;;;;4818394;29;20051;-73
2023/10/27 03:13:32;;;;;;;0.20;0.20;;;10.50;99.90;;;;;;4819191;29;20050;-73
2023/10/27 03:15:58;;;;;;;0.10;0.10;;;10.50;99.90;;;;;;4821337;29;20133;-74
2023/10/27 03:18:24;;;;;;;0.17;0.17;;;10.50;99.90;;;;;;4832638;29;20121;-73
2023/10/27 03:20:57;;;;;;;0.10;0.10;;;10.50;99.90;;;;;;4821180;29;20080;-73
2023/10/27 03:23:27;;;;;;;0.10;0.10;;;10.50;99.90;;;;;;4824126;29;20061;-74
2023/10/27 03:25:53;;;;;;;0.10;0.10;;;10.50;99.90;;;;;;4846967;29;20046;-73
2023/10/27 03:28:20;;;;;;;0.10;0.10;;;10.50;99.90;;;;;;4818474;29;20090;-73
2023/10/27 03:30:48;;;;;;;0.17;0.17;;;10.50;99.90;;;;;;4836505;29;20140;-73
2023/10/27 03:33:14;;;;;;;0.10;0.10;;;10.50;99.90;;;;;;4837857;29;20054;-73
2023/10/27 03:35:42;;;;;;;0.15;0.15;;;10.50;99.90;;;;;;4819711;29;20110;-73
2023/10/27 03:38:09;;;;;;;0.20;0.20;;;10.50;99.90;;;;;;4826694;29;20080;-73
2023/10/27 03:40:40;;;;;;;0.20;0.20;;;10.50;99.90;;;;;;4814758;29;20122;-73
2023/10/27 03:43:06;;;;;;;0.20;0.20;;;10.40;99.90;;;;;;4816987;29;20063;-73
2023/10/27 03:45:33;;;;;;;0.10;0.10;;;10.40;99.90;;;;;;4819141;29;20079;-73
2023/10/27 03:47:59;;;;;;;0.10;0.10;;;10.40;99.90;;;;;;4825106;29;20050;-73
2023/10/27 03:50:25;;;;;;;0.10;0.10;;;10.50;99.90;;;;;;4809855;29;20427;-73
2023/10/27 03:52:50;;;;;;;0.10;0.10;;;10.40;99.90;;;;;;4817658;29;20078;-73
2023/10/27 03:55:16;;;;;;;0.10;0.10;;;10.40;99.90;;;;;;4818177;29;20045;-73
2023/10/27 03:57:42;;;;;;;0.10;0.10;;;10.40;99.90;;;;;;4829161;29;20038;-73
2023/10/27 04:00:08;;;;;;;0.10;0.10;;;10.40;99.90;;;;;;4834964;29;20057;-74
2023/10/27 04:02:34;;;;;;;0.10;0.10;;;10.40;99.90;;;;;;4816222;29;20061;-73
2023/10/27 04:05:00;;;;;;;0.10;0.10;;;10.40;99.90;;;;;;4825116;29;20042;-74
2023/10/27 04:07:26;;;;;;;0.20;0.20;;;10.40;99.90;;;;;;4815134;29;20459;-73
2023/10/27 04:09:52;;;;;;;0.10;0.10;;;10.40;99.90;;;;;;4833374;29;20050;-73
2023/10/27 04:12:18;;;;;;;0.10;0.10;;;10.40;99.90;;;;;;4821563;29;20095;-74
2023/10/27 04:14:44;;;;;;;0.20;0.20;;;10.40;99.90;;;;;;4824606;29;20054;-74
2023/10/27 04:17:10;;;;;;;0.20;0.20;;;10.40;99.90;;;;;;4815466;29;20046;-74
2023/10/27 04:19:35;;;;;;;0.10;0.10;;;10.40;99.90;;;;;;4819644;29;20133;-73
2023/10/27 04:22:01;;;;;;;0.10;0.10;;;10.40;99.90;;;;;;4816175;29;20479;-74
2023/10/27 04:24:27;;;;;;;0.17;0.17;;;10.30;99.90;;;;;;4821912;29;20395;-73
2023/10/27 04:26:53;;;;;;;0.10;0.10;;;10.30;99.90;;;;;;4821677;29;20130;-73
2023/10/27 04:29:19;;;;;;;0.10;0.10;;;10.30;99.90;;;;;;4821674;29;20058;-74
2023/10/27 04:31:45;;;;;;;0.10;0.10;;;10.30;99.90;;;;;;4830392;29;20062;-74
2023/10/27 04:34:11;;;;;;;0.15;0.15;;;10.30;99.90;;;;;;4828127;29;20039;-73
2023/10/27 04:36:37;;;;;;;0.10;0.10;;;10.40;99.90;;;;;;4817293;29;20046;-72
2023/10/27 04:39:04;;;;;;;0.10;0.10;;;10.30;99.90;;;;;;4821040;29;20058;-72
2023/10/27 04:41:30;;;;;;;0.10;0.10;;;10.30;99.90;;;;;;4824212;29;20054;-72
2023/10/27 04:43:56;;;;;;;0.10;0.10;;;10.20;99.90;;;;;;4823471;29;20468;-73
2023/10/27 04:46:22;;;;;;;0.20;0.20;;;10.20;99.90;;;;;;4820304;29;20058;-72
2023/10/27 04:48:48;;;;;;;0.10;0.10;;;10.20;99.90;;;;;;4820543;29;20194;-73
2023/10/27 04:51:14;;;;;;;0.10;0.10;;;10.20;99.90;;;;;;4816190;29;20061;-72
2023/10/27 04:53:40;;;;;;;0.10;0.10;;;10.20;99.90;;;;;;4821733;29;20050;-72
2023/10/27 04:56:06;;;;;;;0.10;0.10;;;10.20;99.90;;;;;;4823280;29;20055;-72
2023/10/27 04:58:32;;;;;;;0.15;0.15;;;10.20;99.90;;;;;;4818754;29;20046;-73
2023/10/27 05:00:58;;;;;;;0.10;0.10;;;10.20;99.90;;;;;;4817085;29;20053;-72
2023/10/27 05:03:24;;;;;;;0.20;0.20;;;10.10;99.90;;;;;;4820160;29;20058;-73
2023/10/27 05:05:49;;;;;;;0.10;0.10;;;10.10;99.90;;;;;;4816588;29;20057;-72
2023/10/27 05:08:15;;;;;;;0.20;0.20;;;10.10;99.90;;;;;;4822142;29;20390;-73
2023/10/27 05:10:42;;;;;;;0.10;0.10;;;10.10;99.90;;;;;;4828054;29;20106;-72
2023/10/27 05:13:08;;;;;;;0.10;0.10;;;10.10;99.90;;;;;;4819194;29;20707;-72
2023/10/27 05:15:34;;;;;;;0.10;0.10;;;10.10;99.90;;;;;;4828012;29;20050;-72
2023/10/27 05:18:04;;;;;;;0.20;0.20;;;10.10;99.90;;;;;;4814770;29;20050;-72
2023/10/27 05:20:35;;;;;;;0.10;0.10;;;10.10;99.90;;;;;;4830088;29;20050;-72
2023/10/27 05:23:00;;;;;;;0.10;0.10;;;10.10;99.90;;;;;;4819720;29;20057;-72
2023/10/27 05:25:26;;;;;;;0.10;0.10;;;10.10;99.90;;;;;;4828991;29;20062;-72
2023/10/27 05:27:52;;;;;;;0.10;0.10;;;10.00;99.90;;;;;;4820268;29;20046;-72
2023/10/27 05:30:17;;;;;;;0.20;0.20;;;10.10;99.90;;;;;;4819283;29;20074;-73
2023/10/27 05:32:43;;;;;;;0.15;0.15;;;10.00;99.90;;;;;;4817225;29;20074;-73
2023/10/27 05:35:09;;;;;;;0.10;0.10;;;10.10;99.90;;;;;;4819874;29;20061;-72
2023/10/27 05:37:34;;;;;;;0.10;0.10;;;10.10;99.90;;;;;;4818835;29;20162;-72
2023/10/27 05:40:00;;;;;;;0.10;0.10;;;10.00;99.90;;;;;;4814782;29;20110;-73
2023/10/27 05:42:26;;;;;;;0.17;0.17;;;10.00;99.90;;;;;;4817742;29;20406;-72
2023/10/27 05:44:51;;;;;;;0.10;0.10;;;10.10;99.90;;;;;;4822474;29;20054;-72
2023/10/27 05:47:19;;;;;;;0.20;0.20;;;10.10;99.90;;;;;;4827257;29;20058;-73
2023/10/27 05:49:44;;;;;;;0.10;0.10;;;10.10;99.90;;;;;;4819091;29;20058;-73
2023/10/27 05:52:10;;;;;;;0.10;0.10;;;10.00;99.90;;;;;;4816704;29;20038;-73
2023/10/27 05:54:36;;;;;;;0.10;0.10;;;10.10;99.90;;;;;;4819125;29;20050;-73
2023/10/27 05:57:03;;;;;;;0.10;0.10;;;10.10;99.90;;;;;;4814833;29;20195;-73
2023/10/27 05:59:29;;;;;;;0.20;0.20;;;10.10;99.90;;;;;;4820828;29;20038;-73
2023/10/27 06:01:54;;;;;;;0.10;0.10;;;10.10;99.90;;;;;;4819078;29;20533;-73
2023/10/27 06:04:21;;;;;;;0.10;0.10;;;10.10;99.90;;;;;;4820556;29;20051;-72
2023/10/27 06:06:47;;;;;;;0.20;0.20;;;10.10;99.90;;;;;;4819561;29;20058;-73
2023/10/27 06:09:12;;;;;;;0.10;0.10;;;10.20;99.90;;;;;;4819322;29;20396;-73
2023/10/27 06:11:38;;;;;;;0.10;0.10;;;10.10;99.90;;;;;;4819450;29;20045;-73
2023/10/27 06:14:04;;;;;;;0.15;0.15;;;10.10;99.90;;;;;;4821113;29;20093;-73
2023/10/27 06:16:30;;;;;;;0.20;0.20;;;10.10;99.90;;;;;;4821073;29;20514;-73
2023/10/27 06:18:56;;;;;;;0.10;0.10;;;10.10;99.90;;;;;;4820255;29;20101;-72
2023/10/27 06:21:21;;;;;;;0.20;0.20;;;10.10;99.90;;;;;;4818796;29;20082;-73
2023/10/27 06:23:47;;;;;;;0.30;0.30;;;10.20;99.90;;;;;;4821141;29;20062;-73
2023/10/27 06:26:12;;;;;;;0.20;0.20;;;10.20;99.90;;;;;;4820603;29;20126;-73
2023/10/27 06:28:38;;;;;;;0.10;0.10;;;10.20;99.90;;;;;;4820469;29;20054;-73
2023/10/27 06:31:05;;;;;;;0.20;0.20;;;10.20;99.90;;;;;;4820697;29;20054;-73
2023/10/27 06:33:34;;;;;;;0.10;0.10;;;10.20;99.90;;;;;;4821443;29;20083;-73
2023/10/27 06:36:00;;;;;;;0.10;0.10;;;10.20;99.90;;;;;;4819512;29;20081;-72
2023/10/27 06:38:26;;;;;;;0.10;0.10;;;10.20;99.90;;;;;;4816406;29;20584;-73
2023/10/27 06:40:51;;;;;;;0.10;0.10;;;10.20;99.90;;;;;;4806833;29;20051;-72
2023/10/27 06:43:18;;;;;;;0.10;0.10;;;10.20;99.90;;;;;;4821342;29;20522;-72
2023/10/27 06:45:44;;;;;;;0.10;0.10;;;10.20;99.90;;;;;;4818816;29;20581;-73
2023/10/27 06:48:10;;;;;;;0.10;0.10;;;10.20;99.90;;;;;;4819990;29;20129;-72
2023/10/27 06:50:35;;;;;;;0.10;0.10;;;10.20;99.90;;;;;;4818252;29;20145;-73
2023/10/27 06:53:01;;;;;;;0.10;0.10;;;10.20;99.90;;;;;;4818766;29;20141;-72
2023/10/27 06:55:26;;;;;;;0.10;0.10;;;10.20;99.90;;;;;;4819932;29;20150;-73
2023/10/27 06:57:52;;;;;;;0.10;0.10;;;10.30;99.90;;;;;;4816889;29;20107;-72
2023/10/27 07:00:18;;;;;;;0.20;0.20;;;10.30;99.90;;;;;;4821402;29;20483;-72
2023/10/27 07:02:44;;;;;;;0.20;0.20;;;10.30;99.90;;;;;;4819087;29;20102;-73
2023/10/27 07:05:13;;;;;;;0.10;0.10;;;10.30;99.90;;;;;;4819610;29;20411;-73
2023/10/27 07:07:39;;;;;;;0.10;0.10;;;10.30;99.90;;;;;;4819073;29;20451;-72
2023/10/27 07:10:06;;;;;;;0.10;0.10;;;10.40;99.90;;;;;;4820052;29;20058;-72
2023/10/27 07:12:32;;;;;;;0.10;0.10;;;10.30;99.90;;;;;;4816540;29;20444;-72
2023/10/27 07:14:58;;;;;;;0.10;0.10;;;10.30;99.90;;;;;;4820004;29;20057;-72
2023/10/27 07:17:24;;;;;;;0.10;0.10;;;10.30;99.90;;;;;;4818866;29;20046;-72
2023/10/27 07:19:50;;;;;;;0.13;0.13;;;10.30;99.90;;;;;;4820573;29;20468;-73
2023/10/27 07:22:19;;;;;;;0.20;0.20;;;10.40;99.90;;;;;;4818498;29;20050;-72
2023/10/27 07:24:48;;;;;;;0.10;0.10;;;10.30;99.90;;;;;;4819319;29;20078;-72
2023/10/27 07:27:14;;;;;;;0.20;0.20;;;10.30;99.90;;;;;;4818940;29;20078;-73
2023/10/27 07:29:40;;;;;;;0.10;0.10;;;10.40;99.90;;;;;;4821151;29;20089;-73
2023/10/27 07:32:05;;;;;;;0.10;0.10;;;10.30;99.90;;;;;;4818487;29;20050;-73
2023/10/27 07:34:31;;;;;;;0.10;0.10;;;10.30;99.90;;;;;;4819493;29;20115;-72
2023/10/27 07:36:57;;;;;;;0.10;0.10;;;10.30;99.90;;;;;;4818001;29;20134;-72
2023/10/27 07:39:23;;;;;;;0.10;0.10;;;10.40;99.90;;;;;;4820570;29;20049;-73
2023/10/27 07:41:52;;;;;;;0.10;0.10;;;10.40;99.90;;;;;;4817183;29;20065;-72
2023/10/27 07:44:18;;;;;;;0.10;0.10;;;10.40;99.90;;;;;;4832809;29;20058;-72
2023/10/27 07:46:44;;;;;;;0.10;0.10;;;10.40;99.90;;;;;;4820846;29;20090;-73
2023/10/27 07:49:10;;;;;;;0.10;0.10;;;10.40;99.90;;;;;;4818479;29;20088;-73
2023/10/27 07:51:36;;;;;;;0.10;0.10;;;10.40;99.90;;;;;;4815933;29;20491;-73
2023/10/27 07:54:03;;;;;;;0.15;0.15;;;10.40;99.90;;;;;;4818978;29;20046;-73
2023/10/27 07:56:29;;;;;;;0.20;0.20;;;10.40;99.90;;;;;;4817936;29;20495;-71
2023/10/27 07:58:58;;;;;;;0.10;0.10;;;10.40;99.90;;;;;;4818788;29;20703;-73
2023/10/27 08:01:24;;;;;;;0.17;0.17;;;10.40;99.90;;;;;;4817488;29;20262;-74
2023/10/27 08:03:50;;;;;;;0.10;0.10;;;10.40;99.90;;;;;;4819091;29;20534;-73
2023/10/27 08:06:16;;;;;;;0.10;0.10;;;10.40;99.90;;;;;;4817698;29;20476;-74
2023/10/27 08:08:42;;;;;;;0.10;0.10;;;10.50;99.90;;;;;;4819080;29;20070;-71
2023/10/27 08:11:13;;;;;;;0.10;0.10;;;10.50;99.90;;;;;;4817800;29;20054;-71
2023/10/27 08:13:39;;;;;;;0.10;0.10;;;10.40;99.90;;;;;;4818064;29;20081;-71
2023/10/27 08:16:05;;;;;;;0.10;0.10;;;10.40;99.90;;;;;;4817681;29;20092;-71
2023/10/27 08:18:31;;;;;;;0.10;0.10;;;10.50;99.90;;;;;;4818657;29;20054;-71
2023/10/27 08:20:57;;;;;;;0.10;0.10;;;10.40;99.90;;;;;;4816494;29;20065;-73
2023/10/27 08:23:23;;;;;;;0.10;0.10;;;10.40;99.90;;;;;;4819167;29;20054;-74
2023/10/27 08:25:52;;;;;;;0.10;0.10;;;10.50;99.90;;;;;;4822403;29;20055;-73
2023/10/27 08:28:21;;;;;;;0.10;0.10;;;10.50;99.90;;;;;;4800302;29;20125;-73
2023/10/27 08:30:48;;;;;;;0.10;0.10;;;10.40;99.90;;;;;;4799551;29;20107;-73
2023/10/27 08:33:16;;;;;;;0.10;0.10;;;10.50;99.90;;;;;;4818504;29;20079;-73
2023/10/27 08:35:42;;;;;;;0.10;0.10;;;10.50;99.90;;;;;;4818946;29;20444;-73
2023/10/27 08:38:08;;;;;;;0.10;0.10;;;10.50;99.90;;;;;;4818412;29;20328;-73
2023/10/27 08:40:35;;;;;;;0.10;0.10;;;10.50;99.90;;;;;;4817585;29;20054;-73
2023/10/27 08:43:04;;;;;;;0.10;0.10;;;10.60;99.90;;;;;;4817288;29;20455;-74
2023/10/27 08:45:34;;;;;;;0.13;0.13;;;10.50;99.90;;;;;;4815292;29;20047;-74
2023/10/27 08:48:00;;;;;;;0.13;0.13;;;10.60;99.90;;;;;;4801670;29;20051;-73
2023/10/27 08:50:29;;;;;;;0.10;0.10;;;10.60;99.90;;;;;;4817111;29;20050;-73
2023/10/27 08:52:59;;;;;;;0.10;0.10;;;10.70;99.90;;;;;;4816936;29;20110;-74
2023/10/27 08:55:25;;;;;;;0.20;0.20;;;10.70;99.90;;;;;;4817403;29;20070;-73
2023/10/27 08:57:54;;;;;;;0.10;0.10;;;10.70;99.90;;;;;;4818269;29;20054;-73
2023/10/27 09:00:19;;;;;;;0.10;0.10;;;10.70;99.90;;;;;;4818894;29;20062;-74
2023/10/27 09:02:48;;;;;;;0.10;0.10;;;10.80;99.90;;;;;;4818090;29;20062;-72
2023/10/27 09:05:14;;;;;;;0.10;0.10;;;10.80;99.90;;;;;;4817181;29;20057;-72
2023/10/27 09:07:40;;;;;;;0.17;0.17;;;10.80;99.90;;;;;;4817959;29;20050;-71
2023/10/27 09:10:06;;;;;;;0.10;0.10;;;10.80;99.90;;;;;;4818448;29;20046;-72
2023/10/27 09:12:36;;;;;;;0.10;0.10;;;10.90;99.90;;;;;;4817246;29;20133;-72
2023/10/27 09:15:05;;;;;;;0.10;0.10;;;10.90;99.90;;;;;;4819426;29;20061;-72
2023/10/27 09:17:48;;;;;;;0.10;0.10;;;11.00;99.90;;;;;;4819766;29;20257;-72
2023/10/27 09:20:14;;;;;;;0.15;0.15;;;11.00;99.90;;;;;;4819844;29;20100;-72
2023/10/27 09:22:56;;;;;;;0.20;0.20;;;11.00;99.90;;;;;;4821390;29;20134;-72
2023/10/27 09:25:28;;;;;;;0.10;0.10;;;11.10;99.90;;;;;;4821527;29;20387;-72
2023/10/27 09:27:54;;;;;;;0.10;0.10;;;11.10;99.90;;;;;;4820090;29;20054;-72
2023/10/27 09:30:30;;;;;;;0.10;0.10;;;11.10;99.90;;;;;;4821216;29;20058;-72
2023/10/27 09:33:19;;;;;;;0.10;0.10;;;11.20;99.90;;;;;;4820124;29;20446;-72
2023/10/27 09:35:46;;;;;;;0.17;0.17;;;11.20;99.90;;;;;;4820345;29;20129;-73
2023/10/27 09:38:13;;;;;;;0.20;0.20;;;11.20;99.90;;;;;;4820549;29;20065;-72
2023/10/27 09:40:40;;;;;;;0.17;0.17;;;11.20;99.90;;;;;;4819942;29;20047;-72
2023/10/27 09:43:17;;;;;;;0.10;0.10;;;11.30;99.90;;;;;;4820888;29;20065;-72
2023/10/27 09:45:53;;;;;;;0.10;0.10;;;11.30;99.90;;;;;;4802194;29;20065;-72
2023/10/27 09:48:30;;;;;;;0.15;0.15;;;11.40;99.90;;;;;;4804119;29;20051;-72
2023/10/27 09:51:04;;;;;;;0.10;0.10;;;11.40;99.90;;;;;;4818961;29;20066;-72
2023/10/27 09:53:30;;;;;;;0.20;0.20;;;11.30;99.90;;;;;;4820805;29;20054;-72
2023/10/27 09:56:00;;;;;;;0.20;0.20;;;11.40;99.90;;;;;;4819868;29;20146;-72
2023/10/27 09:58:29;;;;;;;0.20;0.20;;;11.40;99.90;;;;;;4819772;29;20053;-72
2023/10/27 10:00:56;;;;;;;0.10;0.10;;;11.50;99.90;;;;;;4818876;29;20099;-72
2023/10/27 10:03:26;;;;;;;0.10;0.10;;;11.50;99.90;;;;;;4821772;29;20178;-72
2023/10/27 10:06:23;;;;;;;0.10;0.10;;;11.50;99.90;;;;;;4820830;29;20456;-72
2023/10/27 10:09:11;;;;;;;0.10;0.10;;;11.60;99.90;;;;;;4821041;29;20437;-72
2023/10/27 10:11:55;;;;;;;0.20;0.20;;;11.60;99.90;;;;;;4819760;29;20073;-72
2023/10/27 10:14:43;;;;;;;0.10;0.10;;;11.60;99.90;;;;;;4819663;29;20046;-72
2023/10/27 10:17:09;;;;;;;0.10;0.10;;;11.70;99.90;;;;;;4819265;29;20519;-72
2023/10/27 10:19:51;;;;;;;0.13;0.13;;;11.70;99.90;;;;;;4820751;29;20142;-72
2023/10/27 10:22:39;;;;;;;0.10;0.10;;;11.80;99.90;;;;;;4818324;29;20046;-73
2023/10/27 10:25:14;;;;;;;0.10;0.10;;;11.80;99.90;;;;;;4821174;29;20061;-73
2023/10/27 10:28:09;;;;;;;0.10;0.10;;;11.80;99.90;;;;;;4819284;29;20125;-72
2023/10/27 10:30:40;;;;;;;0.20;0.20;;;11.80;99.90;;;;;;4826101;29;20137;-71
2023/10/27 10:33:27;;;;;;;0.10;0.10;;;11.80;99.90;;;;;;4812328;29;20054;-72
2023/10/27 10:36:22;;;;;;;0.10;0.10;;;11.90;99.90;;;;;;4812110;29;20058;-71
2023/10/27 10:38:53;;;;;;;0.10;0.10;;;11.90;99.90;;;;;;4816825;29;20119;-71
2023/10/27 10:41:19;;;;;;;0.13;0.13;;;11.80;99.90;;;;;;4817814;29;20054;-71
2023/10/27 10:43:45;;;;;;;0.20;0.20;;;11.80;99.90;;;;;;4816485;29;20471;-71
2023/10/27 10:46:12;;;;;;;0.10;0.10;;;11.80;99.90;;;;;;4817107;29;20046;-72
2023/10/27 10:48:46;;;;;;;0.20;0.20;;;11.80;99.90;;;;;;4818464;29;20051;-71
2023/10/27 10:51:59;;;;;;;0.10;0.10;;;11.80;99.90;;;;;;4815425;29;20058;-72
2023/10/27 10:54:00;;;;;;;0.20;0.20;;;11.80;99.90;;;;;;4838100;29;20066;-72
2023/10/27 10:56:26;;;;;;;0.20;0.20;;;11.80;99.90;;;;;;4814643;29;20189;-71
2023/10/27 10:58:53;;;;;;;0.20;0.20;;;11.70;99.90;;;;;;4813184;29;20055;-72
2023/10/27 11:01:20;;;;;;;0.10;0.10;;;11.80;99.90;;;;;;4813875;29;20077;-72
2023/10/27 11:03:48;;;;;;;0.10;0.10;;;11.70;99.90;;;;;;4814823;29;20503;-71
2023/10/27 11:06:14;;;;;;;0.20;0.20;;;11.70;99.90;;;;;;4816690;29;20054;-72
2023/10/27 11:08:40;;;;;;;0.20;0.20;;;11.70;99.90;;;;;;4812116;29;20054;-72
2023/10/27 11:11:08;;;;;;;0.10;0.10;;;11.70;99.90;;;;;;4811402;29;20081;-72
2023/10/27 11:13:41;;;;;;;0.10;0.10;;;11.70;99.90;;;;;;4824181;29;20045;-72
2023/10/27 11:16:23;;;;;;;0.10;0.10;;;11.70;99.90;;;;;;4823653;29;20061;-72
2023/10/27 11:19:02;;;;;;;0.10;0.10;;;11.70;99.90;;;;;;4817489;29;20107;-72
2023/10/27 11:21:30;;;;;;;0.10;0.10;;;11.70;99.90;;;;;;4815155;29;20129;-72
2023/10/27 11:23:56;;;;;;;0.10;0.10;;;11.70;99.90;;;;;;4818475;29;20431;-72
2023/10/27 11:26:26;;;;;;;0.40;0.20;;;11.70;99.90;;;;;;4817402;29;20058;-72
2023/10/27 11:28:55;;;;;;;0.10;0.10;;;11.70;99.90;;;;;;4818431;29;20057;-72
2023/10/27 11:31:30;;;;;;;0.10;0.10;;;11.60;99.90;;;;;;4817489;29;20046;-72
2023/10/27 11:34:03;;;;;;;0.10;0.10;;;11.60;99.90;;;;;;4818399;29;20046;-72
2023/10/27 11:36:29;;;;;;;0.15;0.15;;;11.70;99.90;;;;;;4815842;29;20122;-72
2023/10/27 11:38:55;;;;;;;0.20;0.20;;;11.60;99.90;;;;;;4818267;29;20050;-72
2023/10/27 11:41:21;;;;;;;0.10;0.10;;;11.70;99.90;;;;;;4817500;29;20055;-72
2023/10/27 11:43:47;;;;;;;0.20;0.20;;;11.60;99.90;;;;;;4832673;29;20050;-72
2023/10/27 11:46:17;;;;;;;0.15;0.15;;;11.70;99.90;;;;;;4816732;29;20046;-73
2023/10/27 11:48:44;;;;;;;0.10;0.10;;;11.60;99.90;;;;;;4817478;29;20804;-72
2023/10/27 11:51:11;;;;;;;0.15;0.15;;;11.60;99.90;;;;;;4819417;29;20081;-72
2023/10/27 11:53:46;;;;;;;0.10;0.10;;;11.60;99.90;;;;;;4819175;29;20042;-73
2023/10/27 11:56:12;;;;;;;0.10;0.10;;;11.60;99.90;;;;;;4818399;29;20061;-73
2023/10/27 11:58:41;;;;;;;0.20;0.20;;;11.60;99.90;;;;;;4819869;29;20042;-73
2023/10/27 12:01:07;;;;;;;0.20;0.20;;;11.60;99.90;;;;;;4814649;29;20055;-73
2023/10/27 12:03:33;;;;;;;0.10;0.10;;;11.60;99.90;;;;;;4822730;29;20388;-73
2023/10/27 12:05:59;;;;;;;0.10;0.10;;;11.60;99.90;;;;;;4823645;29;20495;-73
2023/10/27 12:08:25;;;;;;;0.20;0.20;;;11.60;99.90;;;;;;4818592;29;20046;-72
2023/10/27 12:10:54;;;;;;;0.10;0.10;;;11.60;99.90;;;;;;4816813;29;20069;-73
2023/10/27 12:13:21;;;;;;;0.10;0.10;;;11.50;99.90;;;;;;4818271;29;20129;-73
2023/10/27 12:15:47;;;;;;;0.10;0.10;;;11.50;99.90;;;;;;4820062;29;20057;-73
2023/10/27 12:18:19;;;;;;;0.10;0.10;;;11.50;99.90;;;;;;4824398;29;20038;-73
2023/10/27 12:20:45;;;;;;;0.10;0.10;;;11.50;99.90;;;;;;4817377;29;20050;-72
2023/10/27 12:23:11;;;;;;;0.10;0.10;;;11.50;99.90;;;;;;4826723;29;20050;-73
2023/10/27 12:25:37;;;;;;;0.20;0.20;;;11.50;99.90;;;;;;4817942;29;20046;-73
2023/10/27 12:28:03;;;;;;;0.10;0.10;;;11.60;99.90;;;;;;4818462;29;20046;-73
2023/10/27 12:30:30;;;;;;;0.10;0.10;;;11.50;99.90;;;;;;4827010;29;20410;-73
2023/10/27 12:32:57;;;;;;;0.10;0.10;;;11.50;99.90;;;;;;4823803;29;20174;-73
2023/10/27 12:35:25;;;;;;;0.13;0.13;;;11.50;99.90;;;;;;4819837;29;20092;-73
2023/10/27 12:37:53;;;;;;;0.10;0.10;;;11.50;99.90;;;;;;4836529;29;20486;-72
2023/10/27 12:40:24;;;;;;;0.10;0.10;;;11.60;99.90;;;;;;4825952;29;20547;-73
2023/10/27 12:42:51;;;;;;;0.20;0.20;;;11.60;99.90;;;;;;4815507;29;21477;-72
2023/10/27 12:45:17;;;;;;;0.20;0.20;;;11.60;99.90;;;;;;4813585;29;20051;-72
2023/10/27 12:47:48;;;;;;;0.10;0.10;;;11.60;99.90;;;;;;4835502;29;20130;-72
2023/10/27 12:50:14;;;;;;;0.20;0.20;;;11.60;99.90;;;;;;4817289;29;20494;-72